createdAt,value
2018-04-11T00:00:05.561Z,966.98
2018-04-11T00:01:05.882Z,966.98
2018-04-11T00:02:04.950Z,966.89
2018-04-11T00:03:07.008Z,967.14
2018-04-11T00:04:05.751Z,967.05
2018-04-11T00:05:05.307Z,967.03
2018-04-11T00:06:05.462Z,967.03
2018-04-11T00:07:05.206Z,967.09
2018-04-11T00:08:05.812Z,967.17
2018-04-11T00:09:05.834Z,967.03
2018-04-11T00:10:04.998Z,966.96
2018-04-11T00:11:05.615Z,967.18
2018-04-11T00:12:05.357Z,967.06
2018-04-11T00:13:04.975Z,967.09
2018-04-11T00:14:05.290Z,967.12
2018-04-11T00:15:05.908Z,967.18
2018-04-11T00:16:05.877Z,967.04
2018-04-11T00:17:06.149Z,967.21
2018-04-11T00:18:05.534Z,967.12
2018-04-11T00:19:05.320Z,967.27
2018-04-11T00:20:05.720Z,967.21
2018-04-11T00:21:05.747Z,967.21
2018-04-11T00:22:05.621Z,967.27
2018-04-11T00:23:05.604Z,967.24
2018-04-11T00:24:05.651Z,967.21
2018-04-11T00:25:05.659Z,967.09
2018-04-11T00:26:05.480Z,967.21
2018-04-11T00:27:06.793Z,967.18
2018-04-11T00:28:05.975Z,967.18
2018-04-11T00:29:10.358Z,967.24
2018-04-11T00:30:05.322Z,967.10
2018-04-11T00:31:05.314Z,967.16
2018-04-11T00:32:05.279Z,967.10
2018-04-11T00:33:05.702Z,967.19
2018-04-11T00:34:05.908Z,967.36
2018-04-11T00:35:05.954Z,967.41
2018-04-11T00:36:05.047Z,967.39
2018-04-11T00:37:06.188Z,967.34
2018-04-11T00:38:06.051Z,967.39
2018-04-11T00:39:04.978Z,967.32
2018-04-11T00:40:05.476Z,967.42
2018-04-11T00:41:05.494Z,967.51
2018-04-11T00:42:04.980Z,967.32
2018-04-11T00:43:06.138Z,967.46
2018-04-11T00:44:05.112Z,967.46
2018-04-11T00:45:05.057Z,967.41
2018-04-11T00:46:05.456Z,967.46
2018-04-11T00:47:05.620Z,967.41
2018-04-11T00:48:05.796Z,967.47
2018-04-11T00:49:05.267Z,967.47
2018-04-11T00:50:06.024Z,967.53
2018-04-11T00:51:05.873Z,967.53
2018-04-11T00:52:05.574Z,967.39
2018-04-11T00:53:04.968Z,967.41
2018-04-11T00:54:05.573Z,967.44
2018-04-11T00:55:05.177Z,967.50
2018-04-11T00:56:05.928Z,967.47
2018-04-11T00:57:05.102Z,967.53
2018-04-11T00:58:05.957Z,967.44
2018-04-11T00:59:05.105Z,967.58
2018-04-11T01:00:06.788Z,967.53
2018-04-11T01:01:05.049Z,967.47
2018-04-11T01:02:10.036Z,967.44
2018-04-11T01:03:05.855Z,967.47
2018-04-11T01:04:10.569Z,967.56
2018-04-11T01:05:05.502Z,967.59
2018-04-11T01:06:05.565Z,967.53
2018-04-11T01:07:04.938Z,967.56
2018-04-11T01:08:05.452Z,967.44
2018-04-11T01:09:05.455Z,967.53
2018-04-11T01:10:10.058Z,967.39
2018-04-11T01:11:05.873Z,967.50
2018-04-11T01:12:05.402Z,967.41
2018-04-11T01:13:04.973Z,967.41
2018-04-11T01:14:05.640Z,967.44
2018-04-11T01:15:05.773Z,967.41
2018-04-11T01:16:05.755Z,967.50
2018-04-11T01:17:05.058Z,967.36
2018-04-11T01:18:05.126Z,967.34
2018-04-11T01:19:06.035Z,967.33
2018-04-11T01:20:05.043Z,967.41
2018-04-11T01:21:05.963Z,967.34
2018-04-11T01:22:05.690Z,967.41
2018-04-11T01:23:05.478Z,967.50
2018-04-11T01:24:06.054Z,967.44
2018-04-11T01:25:05.235Z,967.56
2018-04-11T01:26:05.943Z,967.34
2018-04-11T01:27:05.037Z,967.42
2018-04-11T01:28:05.814Z,967.54
2018-04-11T01:29:05.182Z,967.45
2018-04-11T01:30:05.840Z,967.45
2018-04-11T01:31:05.989Z,967.43
2018-04-11T01:32:05.203Z,967.63
2018-04-11T01:33:05.879Z,967.49
2018-04-11T01:34:05.487Z,967.52
2018-04-11T01:35:05.264Z,967.49
2018-04-11T01:36:05.745Z,967.67
2018-04-11T01:37:06.020Z,967.50
2018-04-11T01:38:05.251Z,967.59
2018-04-11T01:39:05.322Z,967.56
2018-04-11T01:40:05.831Z,967.53
2018-04-11T01:41:05.651Z,967.65
2018-04-11T01:42:05.025Z,967.59
2018-04-11T01:43:05.862Z,967.71
2018-04-11T01:44:05.020Z,967.62
2018-04-11T01:45:06.017Z,967.62
2018-04-11T01:46:05.598Z,967.63
2018-04-11T01:47:05.486Z,967.71
2018-04-11T01:48:05.467Z,967.71
2018-04-11T01:49:05.553Z,967.72
2018-04-11T01:50:05.166Z,967.72
2018-04-11T01:51:05.161Z,967.49
2018-04-11T01:52:05.224Z,967.58
2018-04-11T01:53:05.000Z,967.55
2018-04-11T01:54:05.463Z,967.55
2018-04-11T01:55:05.942Z,967.44
2018-04-11T01:56:05.415Z,967.33
2018-04-11T01:57:05.990Z,967.47
2018-04-11T01:58:05.902Z,967.41
2018-04-11T01:59:05.146Z,967.31
2018-04-11T02:00:05.854Z,967.36
2018-04-11T02:01:05.348Z,967.31
2018-04-11T02:02:05.844Z,967.47
2018-04-11T02:03:05.657Z,967.41
2018-04-11T02:04:06.403Z,967.41
2018-04-11T02:05:05.261Z,967.31
2018-04-11T02:06:05.912Z,967.39
2018-04-11T02:07:05.978Z,967.31
2018-04-11T02:08:10.692Z,967.53
2018-04-11T02:09:05.715Z,967.50
2018-04-11T02:10:05.267Z,967.34
2018-04-11T02:11:06.011Z,967.45
2018-04-11T02:12:05.251Z,967.48
2018-04-11T02:13:05.722Z,967.42
2018-04-11T02:14:05.927Z,967.39
2018-04-11T02:15:05.373Z,967.39
2018-04-11T02:16:05.373Z,967.56
2018-04-11T02:17:05.595Z,967.59
2018-04-11T02:18:05.222Z,967.56
2018-04-11T02:19:05.976Z,967.51
2018-04-11T02:20:05.828Z,967.57
2018-04-11T02:21:05.218Z,967.54
2018-04-11T02:22:05.954Z,967.68
2018-04-11T02:23:04.951Z,967.48
2018-04-11T02:24:06.065Z,967.57
2018-04-11T02:25:05.825Z,967.57
2018-04-11T02:26:05.406Z,967.60
2018-04-11T02:27:05.035Z,967.54
2018-04-11T02:28:05.010Z,967.57
2018-04-11T02:29:10.129Z,967.75
2018-04-11T02:30:05.087Z,967.75
2018-04-11T02:31:05.327Z,967.49
2018-04-11T02:32:05.822Z,967.67
2018-04-11T02:33:05.384Z,967.58
2018-04-11T02:34:10.627Z,967.58
2018-04-11T02:35:05.702Z,967.70
2018-04-11T02:36:05.418Z,967.64
2018-04-11T02:37:05.987Z,967.75
2018-04-11T02:38:05.236Z,967.56
2018-04-11T02:39:05.919Z,967.50
2018-04-11T02:40:10.645Z,967.64
2018-04-11T02:41:10.589Z,967.64
2018-04-11T02:42:05.619Z,967.59
2018-04-11T02:43:05.891Z,967.64
2018-04-11T02:44:05.651Z,967.70
2018-04-11T02:45:05.224Z,967.76
2018-04-11T02:46:05.167Z,967.70
2018-04-11T02:47:05.368Z,967.53
2018-04-11T02:48:05.025Z,967.61
2018-04-11T02:49:05.947Z,967.78
2018-04-11T02:50:05.132Z,967.67
2018-04-11T02:51:05.914Z,967.67
2018-04-11T02:52:06.636Z,967.52
2018-04-11T02:53:05.916Z,967.61
2018-04-11T02:54:05.619Z,967.58
2018-04-11T02:55:05.860Z,967.58
2018-04-11T02:56:05.516Z,967.61
2018-04-11T02:57:05.929Z,967.61
2018-04-11T02:58:05.375Z,967.69
2018-04-11T02:59:05.639Z,967.63
2018-04-11T03:00:10.384Z,967.75
2018-04-11T03:01:05.349Z,967.58
2018-04-11T03:02:05.211Z,967.75
2018-04-11T03:03:05.813Z,967.78
2018-04-11T03:04:05.557Z,967.69
2018-04-11T03:05:05.997Z,967.69
2018-04-11T03:06:05.477Z,967.69
2018-04-11T03:07:05.302Z,967.75
2018-04-11T03:08:09.002Z,967.72
2018-04-11T03:09:05.393Z,967.67
2018-04-11T03:10:05.904Z,967.58
2018-04-11T03:11:05.038Z,967.61
2018-04-11T03:12:05.296Z,967.67
2018-04-11T03:13:05.831Z,967.67
2018-04-11T03:14:05.079Z,967.64
2018-04-11T03:15:05.929Z,967.67
2018-04-11T03:16:05.022Z,967.67
2018-04-11T03:17:05.220Z,967.53
2018-04-11T03:18:05.259Z,967.73
2018-04-11T03:19:05.721Z,967.64
2018-04-11T03:20:05.254Z,967.67
2018-04-11T03:21:05.928Z,967.62
2018-04-11T03:22:05.947Z,967.65
2018-04-11T03:23:05.036Z,967.59
2018-04-11T03:24:05.110Z,967.68
2018-04-11T03:25:06.227Z,967.56
2018-04-11T03:26:05.476Z,967.56
2018-04-11T03:27:05.474Z,967.71
2018-04-11T03:28:05.518Z,967.62
2018-04-11T03:29:05.481Z,967.60
2018-04-11T03:30:05.070Z,967.48
2018-04-11T03:31:06.035Z,967.68
2018-04-11T03:32:06.087Z,967.62
2018-04-11T03:33:05.671Z,967.60
2018-04-11T03:34:05.507Z,967.51
2018-04-11T03:35:05.475Z,967.54
2018-04-11T03:36:05.822Z,967.54
2018-04-11T03:37:05.513Z,967.54
2018-04-11T03:38:05.049Z,967.60
2018-04-11T03:39:05.496Z,967.54
2018-04-11T03:40:05.342Z,967.71
2018-04-11T03:41:05.003Z,967.57
2018-04-11T03:42:10.301Z,967.51
2018-04-11T03:43:05.156Z,967.46
2018-04-11T03:44:05.864Z,967.51
2018-04-11T03:45:05.459Z,967.60
2018-04-11T03:46:05.401Z,967.63
2018-04-11T03:47:05.885Z,967.60
2018-04-11T03:48:05.693Z,967.54
2018-04-11T03:49:05.292Z,967.63
2018-04-11T03:50:07.044Z,967.66
2018-04-11T03:51:05.479Z,967.66
2018-04-11T03:52:05.401Z,967.71
2018-04-11T03:53:05.392Z,967.57
2018-04-11T03:54:04.879Z,967.62
2018-04-11T03:55:04.942Z,967.68
2018-04-11T03:56:05.089Z,967.57
2018-04-11T03:57:05.058Z,967.51
2018-04-11T03:58:05.335Z,967.62
2018-04-11T03:59:05.309Z,967.65
2018-04-11T04:00:05.762Z,967.62
2018-04-11T04:01:05.775Z,967.62
2018-04-11T04:02:05.463Z,967.65
2018-04-11T04:03:05.921Z,967.65
2018-04-11T04:04:05.017Z,967.76
2018-04-11T04:05:05.483Z,967.73
2018-04-11T04:06:05.324Z,967.48
2018-04-11T04:07:05.302Z,967.62
2018-04-11T04:08:05.153Z,967.74
2018-04-11T04:09:05.727Z,967.62
2018-04-11T04:10:05.228Z,967.54
2018-04-11T04:11:05.927Z,967.63
2018-04-11T04:12:05.295Z,967.57
2018-04-11T04:13:05.350Z,967.63
2018-04-11T04:14:05.577Z,967.54
2018-04-11T04:15:10.492Z,967.60
2018-04-11T04:16:05.501Z,967.57
2018-04-11T04:17:05.788Z,967.54
2018-04-11T04:18:04.982Z,967.62
2018-04-11T04:19:05.156Z,967.74
2018-04-11T04:20:05.287Z,967.60
2018-04-11T04:21:05.953Z,967.62
2018-04-11T04:22:05.738Z,967.74
2018-04-11T04:23:05.623Z,967.62
2018-04-11T04:24:05.889Z,967.68
2018-04-11T04:25:05.833Z,967.68
2018-04-11T04:26:06.009Z,967.74
2018-04-11T04:27:05.400Z,967.74
2018-04-11T04:28:06.012Z,967.79
2018-04-11T04:29:05.554Z,967.77
2018-04-11T04:30:05.961Z,967.59
2018-04-11T04:31:05.909Z,967.62
2018-04-11T04:32:05.808Z,967.68
2018-04-11T04:33:06.766Z,967.68
2018-04-11T04:34:05.145Z,967.68
2018-04-11T04:35:05.746Z,967.82
2018-04-11T04:36:05.598Z,967.82
2018-04-11T04:37:05.909Z,967.79
2018-04-11T04:38:05.469Z,967.76
2018-04-11T04:39:05.162Z,967.79
2018-04-11T04:40:05.577Z,967.79
2018-04-11T04:41:05.310Z,967.87
2018-04-11T04:42:05.885Z,967.70
2018-04-11T04:43:05.855Z,967.76
2018-04-11T04:44:05.295Z,967.81
2018-04-11T04:45:05.787Z,967.87
2018-04-11T04:46:10.451Z,967.81
2018-04-11T04:47:05.428Z,967.96
2018-04-11T04:48:05.516Z,967.87
2018-04-11T04:49:05.505Z,967.73
2018-04-11T04:50:05.655Z,967.84
2018-04-11T04:51:05.137Z,967.81
2018-04-11T04:52:10.933Z,967.95
2018-04-11T04:53:06.217Z,967.87
2018-04-11T04:54:05.731Z,967.73
2018-04-11T04:55:05.829Z,967.81
2018-04-11T04:56:10.568Z,967.93
2018-04-11T04:57:05.534Z,967.98
2018-04-11T04:58:05.787Z,967.90
2018-04-11T04:59:05.030Z,968.01
2018-04-11T05:00:05.272Z,968.03
2018-04-11T05:01:05.442Z,967.98
2018-04-11T05:02:05.779Z,967.92
2018-04-11T05:03:05.590Z,968.03
2018-04-11T05:04:05.566Z,967.83
2018-04-11T05:05:05.218Z,968.05
2018-04-11T05:06:05.257Z,967.88
2018-04-11T05:07:05.228Z,968.05
2018-04-11T05:08:05.932Z,967.94
2018-04-11T05:09:05.658Z,967.91
2018-04-11T05:10:05.368Z,967.99
2018-04-11T05:11:05.198Z,968.10
2018-04-11T05:12:05.891Z,968.13
2018-04-11T05:13:05.418Z,968.13
2018-04-11T05:14:05.962Z,967.98
2018-04-11T05:15:05.678Z,968.12
2018-04-11T05:16:05.541Z,968.07
2018-04-11T05:17:05.084Z,968.03
2018-04-11T05:18:05.774Z,968.01
2018-04-11T05:19:05.549Z,968.23
2018-04-11T05:20:05.413Z,968.20
2018-04-11T05:21:05.230Z,968.20
2018-04-11T05:22:05.393Z,968.03
2018-04-11T05:23:05.024Z,968.28
2018-04-11T05:24:05.052Z,968.22
2018-04-11T05:25:05.144Z,968.25
2018-04-11T05:26:05.706Z,968.37
2018-04-11T05:27:11.098Z,968.17
2018-04-11T05:28:05.445Z,968.19
2018-04-11T05:29:05.396Z,968.14
2018-04-11T05:30:05.941Z,968.16
2018-04-11T05:31:05.268Z,968.13
2018-04-11T05:32:05.303Z,968.24
2018-04-11T05:33:05.266Z,968.24
2018-04-11T05:34:06.489Z,968.18
2018-04-11T05:35:05.226Z,968.09
2018-04-11T05:36:06.745Z,968.18
2018-04-11T05:37:05.908Z,968.15
2018-04-11T05:38:05.822Z,968.14
2018-04-11T05:39:05.411Z,968.23
2018-04-11T05:40:05.100Z,968.20
2018-04-11T05:41:05.300Z,968.11
2018-04-11T05:42:05.724Z,967.99
2018-04-11T05:43:05.476Z,968.28
2018-04-11T05:44:05.724Z,968.19
2018-04-11T05:45:05.460Z,968.13
2018-04-11T05:46:05.514Z,968.27
2018-04-11T05:47:05.066Z,968.24
2018-04-11T05:48:05.730Z,968.19
2018-04-11T05:49:05.377Z,968.36
2018-04-11T05:50:05.758Z,968.16
2018-04-11T05:51:05.536Z,968.30
2018-04-11T05:52:05.193Z,968.35
2018-04-11T05:53:06.008Z,968.38
2018-04-11T05:54:05.409Z,968.24
2018-04-11T05:55:05.189Z,968.27
2018-04-11T05:56:05.869Z,968.27
2018-04-11T05:57:05.600Z,968.29
2018-04-11T05:58:05.110Z,968.29
2018-04-11T05:59:10.904Z,968.35
2018-04-11T06:00:11.031Z,968.41
2018-04-11T06:01:05.163Z,968.43
2018-04-11T06:02:05.544Z,968.43
2018-04-11T06:03:06.080Z,968.43
2018-04-11T06:04:06.037Z,968.43
2018-04-11T06:05:10.734Z,968.35
2018-04-11T06:06:05.984Z,968.52
2018-04-11T06:07:05.173Z,968.49
2018-04-11T06:08:05.363Z,968.40
2018-04-11T06:09:05.984Z,968.46
2018-04-11T06:10:05.872Z,968.43
2018-04-11T06:11:04.976Z,968.66
2018-04-11T06:12:05.432Z,968.49
2018-04-11T06:13:05.019Z,968.57
2018-04-11T06:14:05.695Z,968.57
2018-04-11T06:15:05.359Z,968.54
2018-04-11T06:16:05.929Z,968.51
2018-04-11T06:17:05.690Z,968.57
2018-04-11T06:18:05.817Z,968.65
2018-04-11T06:19:05.539Z,968.71
2018-04-11T06:20:05.294Z,968.66
2018-04-11T06:21:05.363Z,968.82
2018-04-11T06:22:05.796Z,968.79
2018-04-11T06:23:05.527Z,968.76
2018-04-11T06:24:05.934Z,968.73
2018-04-11T06:25:06.106Z,968.87
2018-04-11T06:26:06.009Z,968.87
2018-04-11T06:27:05.691Z,968.76
2018-04-11T06:28:05.419Z,968.71
2018-04-11T06:29:05.003Z,968.76
2018-04-11T06:30:05.650Z,968.76
2018-04-11T06:31:05.140Z,968.68
2018-04-11T06:32:06.037Z,968.81
2018-04-11T06:33:05.522Z,968.79
2018-04-11T06:34:05.182Z,968.81
2018-04-11T06:35:05.517Z,968.73
2018-04-11T06:36:05.201Z,968.90
2018-04-11T06:37:05.751Z,968.73
2018-04-11T06:38:05.602Z,968.79
2018-04-11T06:39:05.357Z,968.90
2018-04-11T06:40:05.934Z,968.82
2018-04-11T06:41:06.076Z,968.93
2018-04-11T06:42:06.060Z,968.82
2018-04-11T06:43:05.818Z,968.82
2018-04-11T06:44:05.495Z,968.96
2018-04-11T06:45:05.705Z,968.87
2018-04-11T06:46:05.197Z,968.90
2018-04-11T06:47:05.973Z,969.08
2018-04-11T06:48:06.116Z,968.99
2018-04-11T06:49:06.056Z,968.85
2018-04-11T06:50:05.702Z,969.05
2018-04-11T06:51:05.885Z,968.96
2018-04-11T06:52:05.527Z,969.11
2018-04-11T06:53:05.337Z,969.10
2018-04-11T06:54:05.218Z,969.08
2018-04-11T06:55:05.236Z,969.13
2018-04-11T06:56:05.086Z,969.08
2018-04-11T06:57:05.753Z,969.02
2018-04-11T06:58:05.677Z,969.05
2018-04-11T06:59:05.173Z,969.05
2018-04-11T07:00:05.102Z,969.05
2018-04-11T07:01:05.853Z,969.16
2018-04-11T07:02:05.542Z,969.05
2018-04-11T07:03:05.927Z,969.05
2018-04-11T07:04:05.743Z,969.08
2018-04-11T07:05:05.525Z,968.94
2018-04-11T07:06:05.453Z,969.02
2018-04-11T07:07:05.821Z,969.05
2018-04-11T07:08:05.810Z,968.96
2018-04-11T07:09:05.765Z,969.11
2018-04-11T07:10:10.600Z,969.33
2018-04-11T07:11:05.624Z,969.28
2018-04-11T07:12:05.359Z,969.25
2018-04-11T07:13:05.202Z,969.14
2018-04-11T07:14:06.471Z,969.28
2018-04-11T07:15:05.452Z,969.14
2018-04-11T07:16:05.113Z,969.25
2018-04-11T07:17:05.639Z,969.13
2018-04-11T07:18:05.312Z,969.28
2018-04-11T07:19:05.430Z,969.28
2018-04-11T07:20:06.241Z,969.16
2018-04-11T07:21:05.721Z,969.10
2018-04-11T07:22:05.501Z,969.22
2018-04-11T07:23:05.703Z,969.13
2018-04-11T07:24:05.981Z,969.13
2018-04-11T07:25:05.077Z,969.19
2018-04-11T07:26:05.262Z,969.33
2018-04-11T07:27:05.359Z,969.19
2018-04-11T07:28:05.468Z,969.25
2018-04-11T07:29:05.987Z,969.22
2018-04-11T07:30:05.795Z,969.33
2018-04-11T07:31:05.964Z,969.19
2018-04-11T07:32:05.033Z,969.22
2018-04-11T07:33:06.074Z,969.19
2018-04-11T07:34:05.951Z,969.30
2018-04-11T07:35:05.760Z,969.39
2018-04-11T07:36:05.239Z,969.39
2018-04-11T07:37:05.649Z,969.27
2018-04-11T07:38:06.178Z,969.30
2018-04-11T07:39:05.224Z,969.27
2018-04-11T07:40:21.160Z,969.27
2018-04-11T07:41:05.296Z,969.22
2018-04-11T07:42:05.716Z,969.25
2018-04-11T07:43:05.826Z,969.33
2018-04-11T07:44:06.104Z,969.16
2018-04-11T07:45:05.014Z,969.24
2018-04-11T07:46:08.777Z,969.27
2018-04-11T07:47:10.976Z,969.36
2018-04-11T07:48:06.013Z,969.30
2018-04-11T07:49:05.548Z,969.59
2018-04-11T07:50:05.831Z,969.33
2018-04-11T07:51:05.360Z,969.39
2018-04-11T07:52:05.205Z,969.42
2018-04-11T07:53:06.593Z,969.47
2018-04-11T07:54:05.447Z,969.47
2018-04-11T07:55:05.550Z,969.65
2018-04-11T07:56:05.949Z,969.70
2018-04-11T07:57:05.741Z,969.79
2018-04-11T07:58:05.519Z,969.70
2018-04-11T07:59:06.016Z,969.68
2018-04-11T08:00:05.666Z,969.70
2018-04-11T08:01:05.229Z,969.65
2018-04-11T08:02:05.913Z,969.59
2018-04-11T08:03:11.761Z,969.50
2018-04-11T08:04:05.661Z,969.59
2018-04-11T08:05:06.004Z,969.68
2018-04-11T08:06:05.448Z,969.59
2018-04-11T08:07:05.446Z,969.71
2018-04-11T08:08:05.958Z,969.65
2018-04-11T08:09:05.130Z,969.59
2018-04-11T08:10:05.747Z,969.71
2018-04-11T08:11:05.912Z,969.71
2018-04-11T08:12:05.270Z,969.65
2018-04-11T08:13:06.289Z,969.65
2018-04-11T08:14:06.021Z,969.68
2018-04-11T08:15:05.067Z,969.65
2018-04-11T08:16:05.293Z,969.68
2018-04-11T08:17:05.075Z,969.56
2018-04-11T08:18:05.633Z,969.56
2018-04-11T08:19:05.580Z,969.70
2018-04-11T08:20:05.707Z,969.62
2018-04-11T08:21:05.418Z,969.65
2018-04-11T08:22:05.385Z,969.67
2018-04-11T08:23:05.929Z,969.76
2018-04-11T08:24:05.677Z,969.61
2018-04-11T08:25:05.183Z,969.67
2018-04-11T08:26:06.202Z,969.76
2018-04-11T08:27:05.894Z,969.87
2018-04-11T08:28:05.432Z,969.73
2018-04-11T08:29:05.533Z,969.70
2018-04-11T08:30:05.416Z,969.87
2018-04-11T08:31:05.200Z,969.81
2018-04-11T08:32:05.688Z,969.90
2018-04-11T08:33:05.232Z,969.76
2018-04-11T08:34:06.030Z,969.81
2018-04-11T08:35:05.373Z,969.97
2018-04-11T08:36:05.869Z,969.73
2018-04-11T08:37:06.006Z,969.84
2018-04-11T08:38:05.088Z,969.61
2018-04-11T08:39:05.339Z,969.78
2018-04-11T08:40:10.559Z,969.87
2018-04-11T08:41:05.538Z,969.70
2018-04-11T08:42:05.567Z,969.64
2018-04-11T08:43:05.811Z,969.67
2018-04-11T08:44:05.982Z,969.78
2018-04-11T08:45:05.982Z,969.75
2018-04-11T08:46:05.281Z,969.78
2018-04-11T08:47:05.357Z,969.78
2018-04-11T08:48:05.997Z,969.72
2018-04-11T08:49:05.075Z,969.67
2018-04-11T08:50:05.357Z,969.84
2018-04-11T08:51:05.077Z,969.78
2018-04-11T08:52:06.019Z,969.87
2018-04-11T08:53:05.767Z,969.81
2018-04-11T08:54:05.236Z,969.93
2018-04-11T08:55:05.682Z,969.93
2018-04-11T08:56:05.795Z,969.90
2018-04-11T08:57:05.184Z,969.93
2018-04-11T08:58:05.683Z,969.90
2018-04-11T08:59:05.349Z,969.84
2018-04-11T09:00:05.520Z,969.90
2018-04-11T09:01:05.808Z,969.81
2018-04-11T09:02:05.616Z,969.87
2018-04-11T09:03:05.720Z,969.79
2018-04-11T09:04:05.180Z,969.67
2018-04-11T09:05:05.156Z,969.47
2018-04-11T09:06:05.738Z,969.42
2018-04-11T09:07:05.538Z,969.36
2018-04-11T09:08:05.800Z,969.36
2018-04-11T09:09:05.164Z,969.65
2018-04-11T09:10:05.432Z,969.76
2018-04-11T09:11:04.995Z,969.68
2018-04-11T09:12:10.361Z,969.68
2018-04-11T09:13:05.237Z,969.80
2018-04-11T09:14:05.513Z,969.68
2018-04-11T09:15:06.568Z,969.80
2018-04-11T09:16:05.725Z,969.74
2018-04-11T09:17:05.151Z,969.76
2018-04-11T09:18:05.980Z,969.88
2018-04-11T09:19:05.127Z,969.76
2018-04-11T09:20:05.583Z,969.73
2018-04-11T09:21:05.690Z,969.70
2018-04-11T09:22:05.844Z,969.67
2018-04-11T09:23:05.722Z,969.72
2018-04-11T09:24:05.517Z,969.61
2018-04-11T09:25:05.573Z,969.69
2018-04-11T09:26:05.369Z,969.62
2018-04-11T09:27:05.445Z,969.62
2018-04-11T09:28:05.401Z,969.56
2018-04-11T09:29:06.126Z,969.61
2018-04-11T09:30:05.046Z,969.46
2018-04-11T09:31:05.722Z,969.62
2018-04-11T09:32:05.472Z,969.53
2018-04-11T09:33:05.884Z,969.61
2018-04-11T09:34:05.458Z,969.46
2018-04-11T09:35:05.633Z,969.48
2018-04-11T09:36:05.888Z,969.47
2018-04-11T09:37:05.176Z,969.53
2018-04-11T09:38:06.076Z,969.52
2018-04-11T09:39:06.188Z,969.48
2018-04-11T09:40:05.421Z,969.42
2018-04-11T09:41:05.782Z,969.47
2018-04-11T09:42:05.129Z,969.17
2018-04-11T09:43:05.726Z,969.42
2018-04-11T09:44:05.977Z,969.38
2018-04-11T09:45:06.116Z,969.26
2018-04-11T09:46:05.587Z,969.14
2018-04-11T09:47:10.333Z,969.34
2018-04-11T09:48:05.171Z,969.45
2018-04-11T09:49:05.019Z,969.50
2018-04-11T09:50:05.856Z,969.41
2018-04-11T09:51:05.747Z,969.55
2018-04-11T09:52:05.454Z,969.49
2018-04-11T09:53:05.801Z,969.37
2018-04-11T09:54:05.710Z,969.43
2018-04-11T09:55:05.542Z,969.45
2018-04-11T09:56:05.091Z,969.51
2018-04-11T09:57:05.289Z,969.54
2018-04-11T09:58:05.224Z,969.59
2018-04-11T09:59:05.212Z,969.36
2018-04-11T10:00:05.824Z,969.50
2018-04-11T10:01:04.944Z,969.38
2018-04-11T10:02:05.888Z,969.50
2018-04-11T10:03:05.819Z,969.44
2018-04-11T10:04:05.752Z,969.55
2018-04-11T10:05:06.518Z,969.41
2018-04-11T10:06:05.379Z,969.46
2018-04-11T10:07:05.770Z,969.40
2018-04-11T10:08:05.554Z,969.48
2018-04-11T10:09:05.098Z,969.51
2018-04-11T10:10:05.924Z,969.59
2018-04-11T10:11:05.661Z,969.61
2018-04-11T10:12:05.293Z,969.44
2018-04-11T10:13:06.169Z,969.46
2018-04-11T10:14:05.870Z,969.51
2018-04-11T10:15:05.647Z,969.56
2018-04-11T10:16:05.995Z,969.47
2018-04-11T10:17:05.892Z,969.41
2018-04-11T10:18:05.845Z,969.61
2018-04-11T10:19:05.220Z,969.63
2018-04-11T10:20:05.448Z,969.45
2018-04-11T10:22:05.264Z,969.56
2018-04-11T10:23:05.643Z,969.42
2018-04-11T10:24:05.340Z,969.44
2018-04-11T10:25:05.169Z,969.58
2018-04-11T10:26:05.767Z,969.61
2018-04-11T10:27:05.429Z,969.64
2018-04-11T10:28:05.057Z,969.49
2018-04-11T10:29:10.722Z,969.55
2018-04-11T10:30:05.586Z,969.43
2018-04-11T10:31:06.010Z,969.69
2018-04-11T10:32:05.251Z,969.51
2018-04-11T10:33:05.140Z,969.54
2018-04-11T10:34:05.647Z,969.49
2018-04-11T10:35:05.498Z,969.57
2018-04-11T10:36:05.235Z,969.51
2018-04-11T10:37:05.009Z,969.51
2018-04-11T10:38:06.361Z,969.57
2018-04-11T10:39:05.437Z,969.49
2018-04-11T10:40:05.212Z,969.57
2018-04-11T10:41:05.148Z,969.57
2018-04-11T10:42:05.877Z,969.69
2018-04-11T10:43:05.528Z,969.69
2018-04-11T10:44:05.698Z,969.63
2018-04-11T10:45:06.245Z,969.69
2018-04-11T10:46:05.809Z,969.63
2018-04-11T10:47:05.597Z,969.60
2018-04-11T10:48:05.246Z,969.75
2018-04-11T10:49:05.213Z,969.66
2018-04-11T10:50:06.031Z,969.64
2018-04-11T10:51:06.212Z,969.61
2018-04-11T10:52:06.089Z,969.67
2018-04-11T10:53:05.029Z,969.75
2018-04-11T10:54:04.969Z,969.58
2018-04-11T10:55:05.105Z,969.64
2018-04-11T10:56:05.873Z,969.73
2018-04-11T10:57:05.146Z,969.73
2018-04-11T10:58:05.757Z,969.73
2018-04-11T10:59:06.312Z,969.65
2018-04-11T11:00:05.986Z,969.71
2018-04-11T11:01:05.605Z,969.62
2018-04-11T11:02:05.270Z,969.77
2018-04-11T11:03:06.240Z,969.65
2018-04-11T11:04:05.433Z,969.83
2018-04-11T11:05:05.892Z,969.51
2018-04-11T11:06:05.493Z,969.63
2018-04-11T11:07:05.630Z,969.77
2018-04-11T11:08:05.740Z,969.72
2018-04-11T11:09:05.960Z,969.69
2018-04-11T11:10:05.426Z,969.86
2018-04-11T11:11:05.217Z,969.72
2018-04-11T11:12:05.673Z,969.72
2018-04-11T11:13:05.421Z,969.72
2018-04-11T11:14:05.116Z,969.75
2018-04-11T11:15:10.679Z,969.83
2018-04-11T11:16:05.846Z,969.72
2018-04-11T11:17:05.454Z,969.78
2018-04-11T11:18:05.200Z,969.75
2018-04-11T11:19:05.525Z,969.63
2018-04-11T11:20:05.606Z,969.83
2018-04-11T11:21:05.788Z,969.60
2018-04-11T11:22:05.481Z,969.69
2018-04-11T11:23:05.121Z,969.75
2018-04-11T11:24:06.233Z,969.75
2018-04-11T11:25:05.800Z,969.66
2018-04-11T11:26:05.504Z,969.75
2018-04-11T11:27:05.696Z,969.61
2018-04-11T11:28:05.997Z,969.61
2018-04-11T11:29:10.781Z,969.61
2018-04-11T11:30:05.277Z,969.69
2018-04-11T11:31:05.984Z,969.72
2018-04-11T11:32:05.744Z,969.78
2018-04-11T11:33:05.920Z,969.63
2018-04-11T11:34:05.642Z,969.61
2018-04-11T11:35:05.150Z,969.69
2018-04-11T11:36:06.312Z,969.72
2018-04-11T11:37:06.181Z,969.64
2018-04-11T11:38:05.850Z,969.78
2018-04-11T11:39:05.496Z,969.72
2018-04-11T11:40:05.487Z,969.78
2018-04-11T11:41:05.826Z,969.64
2018-04-11T11:42:05.267Z,969.75
2018-04-11T11:43:05.514Z,969.87
2018-04-11T11:44:05.145Z,969.87
2018-04-11T11:45:05.262Z,969.72
2018-04-11T11:46:05.951Z,969.78
2018-04-11T11:47:05.012Z,969.81
2018-04-11T11:48:05.764Z,969.84
2018-04-11T11:49:05.511Z,969.76
2018-04-11T11:50:05.281Z,969.90
2018-04-11T11:51:05.734Z,969.76
2018-04-11T11:52:06.102Z,969.67
2018-04-11T11:53:05.096Z,969.73
2018-04-11T11:54:05.653Z,969.76
2018-04-11T11:55:05.142Z,969.82
2018-04-11T11:56:05.174Z,969.67
2018-04-11T11:57:06.151Z,969.73
2018-04-11T11:58:05.444Z,969.73
2018-04-11T11:59:05.240Z,969.67
2018-04-11T12:00:05.998Z,969.84
2018-04-11T12:01:05.626Z,969.58
2018-04-11T12:02:05.411Z,969.70
2018-04-11T12:03:06.240Z,969.64
2018-04-11T12:04:05.733Z,969.67
2018-04-11T12:05:05.870Z,969.70
2018-04-11T12:06:05.701Z,969.61
2018-04-11T12:07:05.526Z,969.59
2018-04-11T12:08:05.195Z,969.70
2018-04-11T12:09:05.339Z,969.73
2018-04-11T12:10:06.104Z,969.62
2018-04-11T12:11:05.365Z,969.62
2018-04-11T12:12:05.446Z,969.70
2018-04-11T12:13:06.555Z,969.73
2018-04-11T12:14:05.594Z,969.56
2018-04-11T12:15:05.821Z,969.56
2018-04-11T12:16:04.988Z,969.64
2018-04-11T12:17:05.700Z,969.59
2018-04-11T12:18:05.461Z,969.44
2018-04-11T12:19:06.041Z,969.56
2018-04-11T12:20:05.560Z,969.47
2018-04-11T12:21:05.773Z,969.53
2018-04-11T12:22:05.447Z,969.50
2018-04-11T12:23:05.707Z,969.47
2018-04-11T12:24:05.413Z,969.47
2018-04-11T12:25:05.190Z,969.47
2018-04-11T12:26:06.074Z,969.38
2018-04-11T12:27:05.623Z,969.49
2018-04-11T12:28:05.235Z,969.49
2018-04-11T12:29:05.355Z,969.58